sensor_id;sensor_type;location;lat;lon;timestamp;temperature;humidity
20722;DHT22;10522;52.198;9.890;2023-05-10T00:01:57;12.50;99.90
20722;DHT22;10522;52.198;9.890;2023-05-10T00:04:23;12.40;99.90
20722;DHT22;10522;52.198;9.890;2023-05-10T00:06:53;12.40;99.90
20722;DHT22;10522;52.198;9.890;2023-05-10T00:09:18;12.30;99.90
20722;DHT22;10522;52.198;9.890;2023-05-10T00:11:44;12.10;99.90
20722;DHT22;10522;52.198;9.890;2023-05-10T00:14:10;12.10;99.90
20722;DHT22;10522;52.198;9.890;2023-05-10T00:16:35;11.90;99.90
20722;DHT22;10522;52.198;9.890;2023-05-10T00:19:01;12.00;99.90
20722;DHT22;10522;52.198;9.890;2023-05-10T00:21:26;11.80;99.90
20722;DHT22;10522;52.198;9.890;2023-05-10T00:23:53;11.90;99.90
20722;DHT22;10522;52.198;9.890;2023-05-10T00:26:19;11.70;99.90
20722;DHT22;10522;52.198;9.890;2023-05-10T00:28:45;11.90;99.90
20722;DHT22;10522;52.198;9.890;2023-05-10T00:31:10;12.20;99.90
20722;DHT22;10522;52.198;9.890;2023-05-10T00:33:36;12.20;99.90
20722;DHT22;10522;52.198;9.890;2023-05-10T00:36:01;12.30;99.90
20722;DHT22;10522;52.198;9.890;2023-05-10T00:38:27;12.40;99.90
20722;DHT22;10522;52.198;9.890;2023-05-10T00:40:53;12.40;99.90
20722;DHT22;10522;52.198;9.890;2023-05-10T00:43:18;12.30;99.90
20722;DHT22;10522;52.198;9.890;2023-05-10T00:45:44;12.20;99.90
20722;DHT22;10522;52.198;9.890;2023-05-10T00:48:10;12.20;99.90
20722;DHT22;10522;52.198;9.890;2023-05-10T00:50:35;12.10;99.90
20722;DHT22;10522;52.198;9.890;2023-05-10T00:53:02;11.90;99.90
20722;DHT22;10522;52.198;9.890;2023-05-10T00:55:28;11.90;99.90
20722;DHT22;10522;52.198;9.890;2023-05-10T00:57:54;11.70;99.90
20722;DHT22;10522;52.198;9.890;2023-05-10T01:00:20;11.60;99.90
20722;DHT22;10522;52.198;9.890;2023-05-10T01:02:46;11.50;99.90
20722;DHT22;10522;52.198;9.890;2023-05-10T01:05:12;11.40;99.90
20722;DHT22;10522;52.198;9.890;2023-05-10T01:07:38;11.40;99.90
20722;DHT22;10522;52.198;9.890;2023-05-10T01:10:05;11.40;99.90
20722;DHT22;10522;52.198;9.890;2023-05-10T01:12:38;11.50;99.90
20722;DHT22;10522;52.198;9.890;2023-05-10T01:15:10;11.60;99.90
20722;DHT22;10522;52.198;9.890;2023-05-10T01:17:38;11.60;99.90
20722;DHT22;10522;52.198;9.890;2023-05-10T01:20:05;11.70;99.90
20722;DHT22;10522;52.198;9.890;2023-05-10T01:33:47;11.20;99.90
20722;DHT22;10522;52.198;9.890;2023-05-10T01:38:53;11.10;99.90
20722;DHT22;10522;52.198;9.890;2023-05-10T01:46:37;11.30;99.90
20722;DHT22;10522;52.198;9.890;2023-05-10T01:49:08;11.30;99.90
20722;DHT22;10522;52.198;9.890;2023-05-10T01:51:48;11.20;99.90
20722;DHT22;10522;52.198;9.890;2023-05-10T01:54:19;11.00;99.90
20722;DHT22;10522;52.198;9.890;2023-05-10T01:56:48;10.90;99.90
20722;DHT22;10522;52.198;9.890;2023-05-10T01:59:18;10.80;99.90
20722;DHT22;10522;52.198;9.890;2023-05-10T02:01:46;10.70;99.90
20722;DHT22;10522;52.198;9.890;2023-05-10T02:04:15;10.70;99.90
20722;DHT22;10522;52.198;9.890;2023-05-10T02:06:43;10.70;99.90
20722;DHT22;10522;52.198;9.890;2023-05-10T02:09:10;10.80;99.90
20722;DHT22;10522;52.198;9.890;2023-05-10T02:11:38;10.80;99.90
20722;DHT22;10522;52.198;9.890;2023-05-10T02:14:07;10.70;99.90
20722;DHT22;10522;52.198;9.890;2023-05-10T02:16:35;10.70;99.90
20722;DHT22;10522;52.198;9.890;2023-05-10T02:19:02;10.80;99.90
20722;DHT22;10522;52.198;9.890;2023-05-10T02:21:29;10.80;99.90
20722;DHT22;10522;52.198;9.890;2023-05-10T02:23:57;10.80;99.90
20722;DHT22;10522;52.198;9.890;2023-05-10T02:26:23;10.90;99.90
20722;DHT22;10522;52.198;9.890;2023-05-10T02:28:50;11.00;99.90
20722;DHT22;10522;52.198;9.890;2023-05-10T02:31:17;11.00;99.90
20722;DHT22;10522;52.198;9.890;2023-05-10T02:33:44;11.00;99.90
20722;DHT22;10522;52.198;9.890;2023-05-10T02:36:12;11.00;99.90
20722;DHT22;10522;52.198;9.890;2023-05-10T02:38:39;11.10;99.90
20722;DHT22;10522;52.198;9.890;2023-05-10T02:41:05;11.10;99.90
20722;DHT22;10522;52.198;9.890;2023-05-10T02:43:33;11.20;99.90
20722;DHT22;10522;52.198;9.890;2023-05-10T02:45:59;11.30;99.90
20722;DHT22;10522;52.198;9.890;2023-05-10T02:48:25;11.30;99.90
20722;DHT22;10522;52.198;9.890;2023-05-10T02:50:52;11.30;99.90
20722;DHT22;10522;52.198;9.890;2023-05-10T02:53:23;11.30;99.90
20722;DHT22;10522;52.198;9.890;2023-05-10T02:55:57;11.40;99.90
20722;DHT22;10522;52.198;9.890;2023-05-10T02:58:22;11.50;99.90
20722;DHT22;10522;52.198;9.890;2023-05-10T03:00:48;11.70;99.90
20722;DHT22;10522;52.198;9.890;2023-05-10T03:03:13;11.70;99.90
20722;DHT22;10522;52.198;9.890;2023-05-10T03:05:39;11.90;99.90
20722;DHT22;10522;52.198;9.890;2023-05-10T03:08:05;12.00;99.90
20722;DHT22;10522;52.198;9.890;2023-05-10T03:10:32;12.00;99.90
20722;DHT22;10522;52.198;9.890;2023-05-10T03:18:23;11.50;99.90
20722;DHT22;10522;52.198;9.890;2023-05-10T03:20:59;11.50;99.90
20722;DHT22;10522;52.198;9.890;2023-05-10T03:23:34;11.40;99.90
20722;DHT22;10522;52.198;9.890;2023-05-10T03:26:00;11.30;99.90
20722;DHT22;10522;52.198;9.890;2023-05-10T03:28:27;11.30;99.90
20722;DHT22;10522;52.198;9.890;2023-05-10T03:30:53;11.30;99.90
20722;DHT22;10522;52.198;9.890;2023-05-10T03:33:20;11.20;99.90
20722;DHT22;10522;52.198;9.890;2023-05-10T03:35:45;11.20;99.90
20722;DHT22;10522;52.198;9.890;2023-05-10T03:38:14;11.20;99.90
20722;DHT22;10522;52.198;9.890;2023-05-10T03:40:40;11.20;99.90
20722;DHT22;10522;52.198;9.890;2023-05-10T03:43:05;11.00;99.90
20722;DHT22;10522;52.198;9.890;2023-05-10T03:45:31;11.10;99.90
20722;DHT22;10522;52.198;9.890;2023-05-10T03:47:57;11.20;99.90
20722;DHT22;10522;52.198;9.890;2023-05-10T03:50:23;11.30;99.90
20722;DHT22;10522;52.198;9.890;2023-05-10T03:52:49;11.40;99.90
20722;DHT22;10522;52.198;9.890;2023-05-10T03:55:14;11.30;99.90
20722;DHT22;10522;52.198;9.890;2023-05-10T03:57:40;11.40;99.90
20722;DHT22;10522;52.198;9.890;2023-05-10T04:00:06;11.40;99.90
20722;DHT22;10522;52.198;9.890;2023-05-10T04:02:32;11.60;99.90
20722;DHT22;10522;52.198;9.890;2023-05-10T04:04:58;11.60;99.90
20722;DHT22;10522;52.198;9.890;2023-05-10T04:07:23;11.60;99.90
20722;DHT22;10522;52.198;9.890;2023-05-10T04:09:49;11.40;99.90
20722;DHT22;10522;52.198;9.890;2023-05-10T04:12:14;11.50;99.90
20722;DHT22;10522;52.198;9.890;2023-05-10T04:14:40;11.50;99.90
20722;DHT22;10522;52.198;9.890;2023-05-10T04:17:06;11.50;99.90
20722;DHT22;10522;52.198;9.890;2023-05-10T04:19:32;11.60;99.90
20722;DHT22;10522;52.198;9.890;2023-05-10T04:21:58;11.50;99.90
20722;DHT22;10522;52.198;9.890;2023-05-10T04:24:24;11.70;99.90
20722;DHT22;10522;52.198;9.890;2023-05-10T04:26:50;11.60;99.90
20722;DHT22;10522;52.198;9.890;2023-05-10T04:29:16;11.70;99.90
20722;DHT22;10522;52.198;9.890;2023-05-10T04:31:41;11.80;99.90
20722;DHT22;10522;52.198;9.890;2023-05-10T04:34:07;11.80;99.90
20722;DHT22;10522;52.198;9.890;2023-05-10T04:36:33;11.80;99.90
20722;DHT22;10522;52.198;9.890;2023-05-10T04:39:00;11.90;99.90
20722;DHT22;10522;52.198;9.890;2023-05-10T04:41:28;11.80;99.90
20722;DHT22;10522;52.198;9.890;2023-05-10T04:43:53;11.70;99.90
20722;DHT22;10522;52.198;9.890;2023-05-10T04:46:19;11.70;99.90
20722;DHT22;10522;52.198;9.890;2023-05-10T04:48:44;11.60;99.90
20722;DHT22;10522;52.198;9.890;2023-05-10T04:51:11;11.60;99.90
20722;DHT22;10522;52.198;9.890;2023-05-10T04:53:36;11.60;99.90
20722;DHT22;10522;52.198;9.890;2023-05-10T04:56:02;11.70;99.90
20722;DHT22;10522;52.198;9.890;2023-05-10T04:58:28;11.80;99.90
20722;DHT22;10522;52.198;9.890;2023-05-10T05:00:53;11.80;99.90
20722;DHT22;10522;52.198;9.890;2023-05-10T05:03:19;11.90;99.90
20722;DHT22;10522;52.198;9.890;2023-05-10T05:05:44;11.80;99.90
20722;DHT22;10522;52.198;9.890;2023-05-10T05:08:10;12.00;99.90
20722;DHT22;10522;52.198;9.890;2023-05-10T05:10:36;12.10;99.90
20722;DHT22;10522;52.198;9.890;2023-05-10T05:13:01;12.10;99.90
20722;DHT22;10522;52.198;9.890;2023-05-10T05:15:27;12.10;99.90
20722;DHT22;10522;52.198;9.890;2023-05-10T05:17:53;12.20;99.90
20722;DHT22;10522;52.198;9.890;2023-05-10T05:20:18;12.20;99.90
20722;DHT22;10522;52.198;9.890;2023-05-10T05:22:44;12.20;99.90
20722;DHT22;10522;52.198;9.890;2023-05-10T05:25:10;12.20;99.90
20722;DHT22;10522;52.198;9.890;2023-05-10T05:27:37;12.10;99.90
20722;DHT22;10522;52.198;9.890;2023-05-10T05:30:03;12.20;99.90
20722;DHT22;10522;52.198;9.890;2023-05-10T05:32:29;12.20;99.90
20722;DHT22;10522;52.198;9.890;2023-05-10T05:34:55;12.30;99.90
20722;DHT22;10522;52.198;9.890;2023-05-10T05:37:20;12.20;99.90
20722;DHT22;10522;52.198;9.890;2023-05-10T05:39:49;12.30;99.90
20722;DHT22;10522;52.198;9.890;2023-05-10T05:42:15;12.40;99.90
20722;DHT22;10522;52.198;9.890;2023-05-10T05:44:43;12.40;99.90
20722;DHT22;10522;52.198;9.890;2023-05-10T05:47:08;12.40;99.90
20722;DHT22;10522;52.198;9.890;2023-05-10T05:49:34;12.40;99.90
20722;DHT22;10522;52.198;9.890;2023-05-10T05:52:01;12.50;99.90
20722;DHT22;10522;52.198;9.890;2023-05-10T05:54:27;12.50;99.90
20722;DHT22;10522;52.198;9.890;2023-05-10T05:57:00;12.60;99.90
20722;DHT22;10522;52.198;9.890;2023-05-10T05:59:26;12.60;99.90
20722;DHT22;10522;52.198;9.890;2023-05-10T06:01:52;12.70;99.90
20722;DHT22;10522;52.198;9.890;2023-05-10T06:04:18;12.70;99.90
20722;DHT22;10522;52.198;9.890;2023-05-10T06:06:43;12.70;99.90
20722;DHT22;10522;52.198;9.890;2023-05-10T06:09:09;12.60;99.90
20722;DHT22;10522;52.198;9.890;2023-05-10T06:11:35;12.60;99.90
20722;DHT22;10522;52.198;9.890;2023-05-10T06:14:02;12.50;99.90
20722;DHT22;10522;52.198;9.890;2023-05-10T06:16:29;12.60;99.90
20722;DHT22;10522;52.198;9.890;2023-05-10T06:18:54;12.60;99.90
20722;DHT22;10522;52.198;9.890;2023-05-10T06:21:20;12.60;99.90
20722;DHT22;10522;52.198;9.890;2023-05-10T06:23:46;12.60;99.90
20722;DHT22;10522;52.198;9.890;2023-05-10T06:26:12;12.70;99.90
20722;DHT22;10522;52.198;9.890;2023-05-10T06:28:39;12.70;99.90
20722;DHT22;10522;52.198;9.890;2023-05-10T06:31:05;13.00;99.90
20722;DHT22;10522;52.198;9.890;2023-05-10T06:33:31;12.80;99.90
20722;DHT22;10522;52.198;9.890;2023-05-10T06:35:56;12.90;99.90
20722;DHT22;10522;52.198;9.890;2023-05-10T06:38:22;12.90;99.90
20722;DHT22;10522;52.198;9.890;2023-05-10T06:40:48;13.00;99.90
20722;DHT22;10522;52.198;9.890;2023-05-10T06:43:13;13.00;99.90
20722;DHT22;10522;52.198;9.890;2023-05-10T06:45:39;13.00;99.90
20722;DHT22;10522;52.198;9.890;2023-05-10T06:48:06;13.10;99.90
20722;DHT22;10522;52.198;9.890;2023-05-10T06:50:32;13.20;99.90
20722;DHT22;10522;52.198;9.890;2023-05-10T06:52:57;13.20;99.90
20722;DHT22;10522;52.198;9.890;2023-05-10T06:55:23;13.20;99.90
20722;DHT22;10522;52.198;9.890;2023-05-10T06:57:49;13.20;99.90
20722;DHT22;10522;52.198;9.890;2023-05-10T07:00:16;13.40;99.90
20722;DHT22;10522;52.198;9.890;2023-05-10T07:02:42;13.40;99.90
20722;DHT22;10522;52.198;9.890;2023-05-10T07:05:08;13.50;99.90
20722;DHT22;10522;52.198;9.890;2023-05-10T07:07:33;13.60;99.90
20722;DHT22;10522;52.198;9.890;2023-05-10T07:09:59;13.70;99.90
20722;DHT22;10522;52.198;9.890;2023-05-10T07:12:25;13.80;99.90
20722;DHT22;10522;52.198;9.890;2023-05-10T07:14:50;13.90;99.90
20722;DHT22;10522;52.198;9.890;2023-05-10T07:17:16;13.90;99.90
20722;DHT22;10522;52.198;9.890;2023-05-10T07:19:41;13.90;99.90
20722;DHT22;10522;52.198;9.890;2023-05-10T07:22:07;13.90;99.90
20722;DHT22;10522;52.198;9.890;2023-05-10T07:24:33;13.90;99.90
20722;DHT22;10522;52.198;9.890;2023-05-10T07:26:59;13.90;99.90
20722;DHT22;10522;52.198;9.890;2023-05-10T07:29:25;14.10;99.90
20722;DHT22;10522;52.198;9.890;2023-05-10T07:31:51;14.20;99.90
20722;DHT22;10522;52.198;9.890;2023-05-10T07:34:16;14.10;99.90
20722;DHT22;10522;52.198;9.890;2023-05-10T07:36:42;14.10;99.90
20722;DHT22;10522;52.198;9.890;2023-05-10T07:39:07;13.90;99.90
20722;DHT22;10522;52.198;9.890;2023-05-10T07:41:33;13.90;99.90
20722;DHT22;10522;52.198;9.890;2023-05-10T07:43:59;13.90;99.90
20722;DHT22;10522;52.198;9.890;2023-05-10T07:46:24;14.00;99.90
20722;DHT22;10522;52.198;9.890;2023-05-10T07:48:50;13.90;99.90
20722;DHT22;10522;52.198;9.890;2023-05-10T07:51:16;13.90;99.90
20722;DHT22;10522;52.198;9.890;2023-05-10T07:53:41;13.90;99.90
20722;DHT22;10522;52.198;9.890;2023-05-10T07:58:46;13.90;99.90
20722;DHT22;10522;52.198;9.890;2023-05-10T08:01:12;14.00;99.90
20722;DHT22;10522;52.198;9.890;2023-05-10T08:03:37;14.00;99.90
20722;DHT22;10522;52.198;9.890;2023-05-10T08:06:03;13.90;99.90
20722;DHT22;10522;52.198;9.890;2023-05-10T08:08:29;14.00;99.90
20722;DHT22;10522;52.198;9.890;2023-05-10T08:10:54;14.10;99.90
20722;DHT22;10522;52.198;9.890;2023-05-10T08:13:21;13.90;99.90
20722;DHT22;10522;52.198;9.890;2023-05-10T08:15:46;14.00;99.90
20722;DHT22;10522;52.198;9.890;2023-05-10T08:18:12;14.00;99.90
20722;DHT22;10522;52.198;9.890;2023-05-10T08:20:38;14.00;99.90
20722;DHT22;10522;52.198;9.890;2023-05-10T08:23:04;14.00;99.90
20722;DHT22;10522;52.198;9.890;2023-05-10T08:25:29;13.90;99.90
20722;DHT22;10522;52.198;9.890;2023-05-10T08:27:55;13.90;99.90
20722;DHT22;10522;52.198;9.890;2023-05-10T08:30:21;14.00;99.90
20722;DHT22;10522;52.198;9.890;2023-05-10T08:32:46;14.00;99.90
20722;DHT22;10522;52.198;9.890;2023-05-10T08:35:12;14.00;99.90
20722;DHT22;10522;52.198;9.890;2023-05-10T08:37:37;14.00;99.90
20722;DHT22;10522;52.198;9.890;2023-05-10T08:40:03;13.90;99.90
20722;DHT22;10522;52.198;9.890;2023-05-10T08:42:30;14.00;99.90
20722;DHT22;10522;52.198;9.890;2023-05-10T08:44:59;14.20;99.90
20722;DHT22;10522;52.198;9.890;2023-05-10T08:47:25;14.10;99.90
20722;DHT22;10522;52.198;9.890;2023-05-10T08:49:51;14.20;99.90
20722;DHT22;10522;52.198;9.890;2023-05-10T08:52:17;14.30;99.90
20722;DHT22;10522;52.198;9.890;2023-05-10T08:54:43;14.40;99.90
20722;DHT22;10522;52.198;9.890;2023-05-10T08:57:10;14.40;99.90
20722;DHT22;10522;52.198;9.890;2023-05-10T08:59:36;14.30;99.90
20722;DHT22;10522;52.198;9.890;2023-05-10T09:02:05;14.50;99.90
20722;DHT22;10522;52.198;9.890;2023-05-10T09:04:31;14.80;99.90
20722;DHT22;10522;52.198;9.890;2023-05-10T09:06:57;14.60;99.90
20722;DHT22;10522;52.198;9.890;2023-05-10T09:09:24;14.60;99.90
20722;DHT22;10522;52.198;9.890;2023-05-10T09:11:51;14.70;99.90
20722;DHT22;10522;52.198;9.890;2023-05-10T09:14:17;14.90;99.90
20722;DHT22;10522;52.198;9.890;2023-05-10T09:16:43;14.80;99.90
20722;DHT22;10522;52.198;9.890;2023-05-10T09:19:10;14.80;99.90
20722;DHT22;10522;52.198;9.890;2023-05-10T09:21:36;14.60;99.90
20722;DHT22;10522;52.198;9.890;2023-05-10T09:24:08;14.30;99.90
20722;DHT22;10522;52.198;9.890;2023-05-10T09:26:34;14.30;99.90
20722;DHT22;10522;52.198;9.890;2023-05-10T09:29:03;14.20;99.90
20722;DHT22;10522;52.198;9.890;2023-05-10T09:31:47;14.30;99.90
20722;DHT22;10522;52.198;9.890;2023-05-10T09:34:19;14.40;99.90
20722;DHT22;10522;52.198;9.890;2023-05-10T09:36:54;14.30;99.90
20722;DHT22;10522;52.198;9.890;2023-05-10T09:39:20;14.30;99.90
20722;DHT22;10522;52.198;9.890;2023-05-10T09:41:46;14.40;99.90
20722;DHT22;10522;52.198;9.890;2023-05-10T09:44:16;14.50;99.90
20722;DHT22;10522;52.198;9.890;2023-05-10T09:46:49;14.50;99.90
20722;DHT22;10522;52.198;9.890;2023-05-10T09:49:14;14.60;99.90
20722;DHT22;10522;52.198;9.890;2023-05-10T09:51:40;14.80;99.90
20722;DHT22;10522;52.198;9.890;2023-05-10T09:54:12;15.00;99.90
20722;DHT22;10522;52.198;9.890;2023-05-10T09:56:38;15.20;99.90
20722;DHT22;10522;52.198;9.890;2023-05-10T09:59:06;15.20;99.90
20722;DHT22;10522;52.198;9.890;2023-05-10T10:01:33;15.20;99.90
20722;DHT22;10522;52.198;9.890;2023-05-10T10:03:59;15.30;99.90
20722;DHT22;10522;52.198;9.890;2023-05-10T10:06:27;15.30;99.90
20722;DHT22;10522;52.198;9.890;2023-05-10T10:08:54;15.30;99.90
20722;DHT22;10522;52.198;9.890;2023-05-10T10:11:20;15.40;99.90
20722;DHT22;10522;52.198;9.890;2023-05-10T10:13:46;15.60;99.90
20722;DHT22;10522;52.198;9.890;2023-05-10T10:16:11;15.80;99.90
20722;DHT22;10522;52.198;9.890;2023-05-10T10:18:37;15.90;99.90
20722;DHT22;10522;52.198;9.890;2023-05-10T10:21:06;15.90;99.90
20722;DHT22;10522;52.198;9.890;2023-05-10T10:23:32;16.00;99.90
20722;DHT22;10522;52.198;9.890;2023-05-10T10:25:58;15.90;99.90
20722;DHT22;10522;52.198;9.890;2023-05-10T10:31:27;15.90;99.90
20722;DHT22;10522;52.198;9.890;2023-05-10T10:34:05;16.10;99.90
20722;DHT22;10522;52.198;9.890;2023-05-10T10:36:33;16.20;99.90
20722;DHT22;10522;52.198;9.890;2023-05-10T10:39:09;16.60;99.90
20722;DHT22;10522;52.198;9.890;2023-05-10T10:41:36;16.40;99.90
20722;DHT22;10522;52.198;9.890;2023-05-10T10:52:27;16.50;99.90
20722;DHT22;10522;52.198;9.890;2023-05-10T10:55:03;16.70;99.90
20722;DHT22;10522;52.198;9.890;2023-05-10T10:57:54;16.50;99.90
20722;DHT22;10522;52.198;9.890;2023-05-10T11:03:05;16.60;99.90
20722;DHT22;10522;52.198;9.890;2023-05-10T11:05:45;16.50;99.90
20722;DHT22;10522;52.198;9.890;2023-05-10T11:10:48;16.80;99.90
20722;DHT22;10522;52.198;9.890;2023-05-10T11:13:14;16.90;99.90
20722;DHT22;10522;52.198;9.890;2023-05-10T11:15:40;16.90;99.90
20722;DHT22;10522;52.198;9.890;2023-05-10T11:23:20;17.40;99.90
20722;DHT22;10522;52.198;9.890;2023-05-10T11:25:48;17.50;99.90
20722;DHT22;10522;52.198;9.890;2023-05-10T11:28:14;17.30;99.90
20722;DHT22;10522;52.198;9.890;2023-05-10T11:30:43;17.40;99.90
20722;DHT22;10522;52.198;9.890;2023-05-10T11:33:11;18.00;99.90
20722;DHT22;10522;52.198;9.890;2023-05-10T11:35:41;18.50;99.90
20722;DHT22;10522;52.198;9.890;2023-05-10T11:38:10;18.60;99.90
20722;DHT22;10522;52.198;9.890;2023-05-10T11:40:37;18.70;99.90
20722;DHT22;10522;52.198;9.890;2023-05-10T11:43:04;18.70;99.90
20722;DHT22;10522;52.198;9.890;2023-05-10T11:45:32;19.00;99.90
20722;DHT22;10522;52.198;9.890;2023-05-10T11:47:59;19.30;99.90
20722;DHT22;10522;52.198;9.890;2023-05-10T11:50:25;19.50;99.90
20722;DHT22;10522;52.198;9.890;2023-05-10T11:52:55;19.80;99.90
20722;DHT22;10522;52.198;9.890;2023-05-10T11:55:20;20.00;99.90
20722;DHT22;10522;52.198;9.890;2023-05-10T11:57:46;20.20;99.90
20722;DHT22;10522;52.198;9.890;2023-05-10T12:00:13;20.10;99.90
20722;DHT22;10522;52.198;9.890;2023-05-10T12:02:39;19.80;99.90
20722;DHT22;10522;52.198;9.890;2023-05-10T12:05:05;19.90;99.90
20722;DHT22;10522;52.198;9.890;2023-05-10T12:07:31;20.10;99.90
20722;DHT22;10522;52.198;9.890;2023-05-10T12:10:07;19.80;99.90
20722;DHT22;10522;52.198;9.890;2023-05-10T12:12:38;19.60;99.90
20722;DHT22;10522;52.198;9.890;2023-05-10T12:15:05;19.10;99.90
20722;DHT22;10522;52.198;9.890;2023-05-10T12:17:31;18.80;99.90
20722;DHT22;10522;52.198;9.890;2023-05-10T12:20:14;18.50;99.90
20722;DHT22;10522;52.198;9.890;2023-05-10T12:22:40;17.90;99.90
20722;DHT22;10522;52.198;9.890;2023-05-10T12:25:07;17.70;99.90
20722;DHT22;10522;52.198;9.890;2023-05-10T12:27:34;17.40;99.90
20722;DHT22;10522;52.198;9.890;2023-05-10T12:30:00;17.00;99.90
20722;DHT22;10522;52.198;9.890;2023-05-10T12:32:41;17.00;99.90
20722;DHT22;10522;52.198;9.890;2023-05-10T12:35:07;16.90;99.90
20722;DHT22;10522;52.198;9.890;2023-05-10T12:37:34;16.50;99.90
20722;DHT22;10522;52.198;9.890;2023-05-10T12:40:05;16.20;99.90
20722;DHT22;10522;52.198;9.890;2023-05-10T12:42:32;16.10;99.90
20722;DHT22;10522;52.198;9.890;2023-05-10T12:44:57;15.90;99.90
20722;DHT22;10522;52.198;9.890;2023-05-10T12:47:23;16.10;99.90
20722;DHT22;10522;52.198;9.890;2023-05-10T12:49:48;16.20;99.90
20722;DHT22;10522;52.198;9.890;2023-05-10T12:52:14;16.30;99.90
20722;DHT22;10522;52.198;9.890;2023-05-10T12:54:39;16.40;99.90
20722;DHT22;10522;52.198;9.890;2023-05-10T12:57:05;16.50;99.90
20722;DHT22;10522;52.198;9.890;2023-05-10T12:59:31;16.40;99.90
20722;DHT22;10522;52.198;9.890;2023-05-10T13:01:57;16.60;99.90
20722;DHT22;10522;52.198;9.890;2023-05-10T13:04:23;16.60;99.90
20722;DHT22;10522;52.198;9.890;2023-05-10T13:06:48;17.10;99.90
20722;DHT22;10522;52.198;9.890;2023-05-10T13:09:14;17.30;99.90
20722;DHT22;10522;52.198;9.890;2023-05-10T13:11:40;17.50;99.90
20722;DHT22;10522;52.198;9.890;2023-05-10T13:14:06;17.50;99.90
20722;DHT22;10522;52.198;9.890;2023-05-10T13:16:32;17.60;99.90
20722;DHT22;10522;52.198;9.890;2023-05-10T13:18:58;18.00;99.90
20722;DHT22;10522;52.198;9.890;2023-05-10T13:21:23;18.40;99.90
20722;DHT22;10522;52.198;9.890;2023-05-10T13:23:50;18.70;99.90
20722;DHT22;10522;52.198;9.890;2023-05-10T13:26:16;18.80;99.90
20722;DHT22;10522;52.198;9.890;2023-05-10T13:28:42;18.90;99.90
20722;DHT22;10522;52.198;9.890;2023-05-10T13:31:07;19.00;99.90
20722;DHT22;10522;52.198;9.890;2023-05-10T13:33:33;18.90;99.90
20722;DHT22;10522;52.198;9.890;2023-05-10T13:35:59;18.80;99.90
20722;DHT22;10522;52.198;9.890;2023-05-10T13:38:24;18.80;99.90
20722;DHT22;10522;52.198;9.890;2023-05-10T13:40:50;18.70;99.90
20722;DHT22;10522;52.198;9.890;2023-05-10T13:43:18;18.70;99.90
20722;DHT22;10522;52.198;9.890;2023-05-10T13:45:44;18.80;99.90
20722;DHT22;10522;52.198;9.890;2023-05-10T13:48:09;18.60;99.90
20722;DHT22;10522;52.198;9.890;2023-05-10T13:50:35;18.50;99.90
20722;DHT22;10522;52.198;9.890;2023-05-10T13:53:00;18.60;99.90
20722;DHT22;10522;52.198;9.890;2023-05-10T13:55:26;18.60;99.90
20722;DHT22;10522;52.198;9.890;2023-05-10T13:57:52;18.60;99.90
20722;DHT22;10522;52.198;9.890;2023-05-10T14:00:18;18.40;99.90
20722;DHT22;10522;52.198;9.890;2023-05-10T14:02:43;18.40;99.90
20722;DHT22;10522;52.198;9.890;2023-05-10T14:05:09;18.50;99.90
20722;DHT22;10522;52.198;9.890;2023-05-10T14:07:35;18.60;99.90
20722;DHT22;10522;52.198;9.890;2023-05-10T14:10:00;18.60;99.90
20722;DHT22;10522;52.198;9.890;2023-05-10T14:12:27;18.70;99.90
20722;DHT22;10522;52.198;9.890;2023-05-10T14:14:52;18.60;99.90
20722;DHT22;10522;52.198;9.890;2023-05-10T14:17:18;18.60;99.90
20722;DHT22;10522;52.198;9.890;2023-05-10T14:19:44;18.70;99.90
20722;DHT22;10522;52.198;9.890;2023-05-10T14:22:10;18.80;99.90
20722;DHT22;10522;52.198;9.890;2023-05-10T14:24:38;19.10;99.90
20722;DHT22;10522;52.198;9.890;2023-05-10T14:27:03;19.10;99.90
20722;DHT22;10522;52.198;9.890;2023-05-10T14:29:29;19.20;99.90
20722;DHT22;10522;52.198;9.890;2023-05-10T14:31:54;19.20;99.90
20722;DHT22;10522;52.198;9.890;2023-05-10T14:34:20;19.10;99.90
20722;DHT22;10522;52.198;9.890;2023-05-10T14:36:46;19.20;99.90
20722;DHT22;10522;52.198;9.890;2023-05-10T14:39:11;19.20;99.90
20722;DHT22;10522;52.198;9.890;2023-05-10T14:41:38;19.20;99.90
20722;DHT22;10522;52.198;9.890;2023-05-10T14:44:06;19.10;99.90
20722;DHT22;10522;52.198;9.890;2023-05-10T14:46:32;18.90;99.90
20722;DHT22;10522;52.198;9.890;2023-05-10T14:48:57;18.90;99.90
20722;DHT22;10522;52.198;9.890;2023-05-10T14:51:23;19.10;99.90
20722;DHT22;10522;52.198;9.890;2023-05-10T14:53:49;19.00;99.90
20722;DHT22;10522;52.198;9.890;2023-05-10T14:56:15;19.20;99.90
20722;DHT22;10522;52.198;9.890;2023-05-10T14:58:40;19.30;99.90
20722;DHT22;10522;52.198;9.890;2023-05-10T15:01:06;19.10;99.90
20722;DHT22;10522;52.198;9.890;2023-05-10T15:03:31;19.20;99.90
20722;DHT22;10522;52.198;9.890;2023-05-10T15:05:57;19.30;99.90
20722;DHT22;10522;52.198;9.890;2023-05-10T15:08:23;19.30;99.90
20722;DHT22;10522;52.198;9.890;2023-05-10T15:10:50;19.20;99.90
20722;DHT22;10522;52.198;9.890;2023-05-10T15:13:16;18.80;99.90
20722;DHT22;10522;52.198;9.890;2023-05-10T15:15:42;18.80;99.90
20722;DHT22;10522;52.198;9.890;2023-05-10T15:18:09;18.80;99.90
20722;DHT22;10522;52.198;9.890;2023-05-10T15:20:34;18.70;99.90
20722;DHT22;10522;52.198;9.890;2023-05-10T15:23:00;18.60;99.90
20722;DHT22;10522;52.198;9.890;2023-05-10T15:25:26;18.50;99.90
20722;DHT22;10522;52.198;9.890;2023-05-10T15:27:53;18.30;99.90
20722;DHT22;10522;52.198;9.890;2023-05-10T15:30:18;18.10;99.90
20722;DHT22;10522;52.198;9.890;2023-05-10T15:32:44;18.00;99.90
20722;DHT22;10522;52.198;9.890;2023-05-10T15:35:10;17.90;99.90
20722;DHT22;10522;52.198;9.890;2023-05-10T15:37:36;17.80;99.90
20722;DHT22;10522;52.198;9.890;2023-05-10T15:40:01;17.70;99.90
20722;DHT22;10522;52.198;9.890;2023-05-10T15:42:30;17.50;99.90
20722;DHT22;10522;52.198;9.890;2023-05-10T15:44:57;17.30;99.90
20722;DHT22;10522;52.198;9.890;2023-05-10T15:47:23;17.20;99.90
20722;DHT22;10522;52.198;9.890;2023-05-10T15:49:49;17.10;99.90
20722;DHT22;10522;52.198;9.890;2023-05-10T15:52:14;17.10;99.90
20722;DHT22;10522;52.198;9.890;2023-05-10T15:54:41;17.00;99.90
20722;DHT22;10522;52.198;9.890;2023-05-10T15:57:06;16.90;99.90
20722;DHT22;10522;52.198;9.890;2023-05-10T15:59:32;16.90;99.90
20722;DHT22;10522;52.198;9.890;2023-05-10T16:01:58;16.60;99.90
20722;DHT22;10522;52.198;9.890;2023-05-10T16:04:23;16.20;99.90
20722;DHT22;10522;52.198;9.890;2023-05-10T16:06:50;15.80;99.90
20722;DHT22;10522;52.198;9.890;2023-05-10T16:09:15;15.50;99.90
20722;DHT22;10522;52.198;9.890;2023-05-10T16:11:44;15.20;99.90
20722;DHT22;10522;52.198;9.890;2023-05-10T16:14:10;15.00;99.90
20722;DHT22;10522;52.198;9.890;2023-05-10T16:16:35;14.90;99.90